createdAt,value
2023-04-25T00:04:02.039Z,99876.20
2023-04-25T00:09:12.154Z,99878.56
2023-04-25T00:14:17.948Z,99879.58
2023-04-25T00:19:23.710Z,99875.78
2023-04-25T00:24:29.206Z,99873.05
2023-04-25T00:29:35.261Z,99868.03
2023-04-25T00:34:41.017Z,99876.72
2023-04-25T00:39:46.751Z,99870.41
2023-04-25T00:44:53.803Z,99866.77
2023-04-25T00:49:59.412Z,99876.11
2023-04-25T00:55:05.363Z,99886.55
2023-04-25T01:00:12.392Z,99879.55
2023-04-25T01:05:19.863Z,99878.16
2023-04-25T01:10:25.878Z,99875.48
2023-04-25T01:15:31.709Z,99874.89
2023-04-25T01:20:38.642Z,99871.84
2023-04-25T01:25:44.984Z,99866.81
2023-04-25T01:30:50.994Z,99864.70
2023-04-25T01:35:57.006Z,99860.59
2023-04-25T01:41:02.721Z,99863.75
2023-04-25T01:46:08.703Z,99863.40
2023-04-25T01:51:14.887Z,99864.08
2023-04-25T01:56:22.248Z,99866.55
2023-04-25T02:01:27.792Z,99860.80
2023-04-25T02:06:38.195Z,99857.78
2023-04-25T02:11:46.173Z,99857.69
2023-04-25T02:17:08.648Z,99848.44
2023-04-25T02:22:15.154Z,99854.45
2023-04-25T02:27:20.635Z,99858.41
2023-04-25T02:32:26.483Z,99868.09
2023-04-25T02:37:33.011Z,99864.70
2023-04-25T02:42:38.781Z,99863.95
2023-04-25T02:47:44.405Z,99852.83
2023-04-25T02:52:50.113Z,99857.10
2023-04-25T02:57:57.220Z,99851.15
2023-04-25T03:03:18.306Z,99848.20
2023-04-25T03:08:24.208Z,99851.15
2023-04-25T03:13:31.028Z,99852.48
2023-04-25T03:18:37.795Z,99851.70
2023-04-25T03:23:43.549Z,99852.07
2023-04-25T03:28:49.214Z,99844.03
2023-04-25T03:33:55.209Z,99849.57
2023-04-25T03:39:01.176Z,99858.92
2023-04-25T03:44:07.951Z,99849.47
2023-04-25T03:49:13.438Z,99861.48
2023-04-25T03:54:32.498Z,99862.98
2023-04-25T03:59:39.784Z,99860.94
2023-04-25T04:04:47.293Z,99859.36
2023-04-25T04:09:53.424Z,99861.00
2023-04-25T04:15:00.636Z,99860.21
2023-04-25T04:20:09.692Z,99864.94
2023-04-25T04:25:16.950Z,99870.28
2023-04-25T04:30:43.744Z,99878.16
2023-04-25T04:35:49.858Z,99875.66
2023-04-25T04:40:56.020Z,99887.09
2023-04-25T04:46:04.531Z,99892.16
2023-04-25T04:51:21.942Z,99899.03
2023-04-25T04:56:29.410Z,99900.95
2023-04-25T05:01:45.407Z,99911.50
2023-04-25T05:06:53.091Z,99906.44
2023-04-25T05:12:12.476Z,99904.08
2023-04-25T05:17:19.674Z,99903.50
2023-04-25T05:22:43.348Z,99903.91
2023-04-25T05:27:52.111Z,99903.33
2023-04-25T05:33:15.899Z,99908.80
2023-04-25T05:38:22.664Z,99916.68
2023-04-25T05:43:48.503Z,99918.67
2023-04-25T05:49:02.227Z,99929.25
2023-04-25T05:54:21.427Z,99927.19
2023-04-25T05:59:27.242Z,99926.09
2023-04-25T06:04:33.622Z,99926.81
2023-04-25T06:09:41.592Z,99933.63
2023-04-25T06:14:48.151Z,99938.96
2023-04-25T06:19:53.657Z,99933.00
2023-04-25T06:25:01.286Z,99934.34
